Time;durP1;ratioP1;P1;durP2;ratioP2;P2;SDS_P1;SDS_P2;PMS_P1;PMS_P2;Temp;Humidity;BMP_temperature;BMP_pressure;BME280_temperature;BME280_humidity;BME280_pressure;Samples;Min_cycle;Max_cycle;Signal;HPM_P1;HPM_P2
2021/07/20 00:02:37;;;;;;;1.30;1.20;;;25.30;52.20;;;29.05;35.63;101713.72;5119813;28;20040;-55
2021/07/20 00:05:05;;;;;;;1.50;1.35;;;25.30;52.20;;;29.06;35.81;101710.06;5120059;28;20043;-53
2021/07/20 00:07:31;;;;;;;1.60;1.10;;;25.30;52.20;;;29.05;35.73;101707.50;5119134;28;20100;-48
2021/07/20 00:09:57;;;;;;;1.33;1.23;;;25.30;52.20;;;29.03;35.59;101704.94;5119512;28;20085;-54
2021/07/20 00:12:23;;;;;;;1.92;1.58;;;25.30;52.30;;;29.05;35.72;101704.81;5119433;28;20052;-53
2021/07/20 00:14:49;;;;;;;1.45;1.08;;;25.30;52.30;;;29.03;35.76;101707.63;5119544;28;20131;-50
2021/07/20 00:17:15;;;;;;;1.35;1.25;;;25.20;52.30;;;29.01;35.45;101710.44;5119504;28;20528;-51
2021/07/20 00:19:41;;;;;;;1.38;1.27;;;25.20;52.30;;;29.01;35.63;101726.59;5099657;28;20087;-53
2021/07/20 00:22:07;;;;;;;1.75;1.15;;;25.20;52.30;;;28.99;35.82;101707.03;5119287;28;20055;-55
2021/07/20 00:24:33;;;;;;;1.95;1.50;;;25.20;52.30;;;29.02;35.47;101708.63;5119494;28;20482;-54
2021/07/20 00:26:59;;;;;;;1.48;1.38;;;25.20;52.30;;;28.97;35.62;101708.16;5119650;28;20516;-52
2021/07/20 00:29:24;;;;;;;1.50;1.30;;;25.20;52.40;;;28.98;35.69;101713.38;5119338;28;20376;-51
2021/07/20 00:31:50;;;;;;;1.35;1.20;;;25.20;52.40;;;28.98;35.80;101715.22;5119005;28;20042;-52
2021/07/20 00:34:16;;;;;;;1.20;1.10;;;25.20;52.40;;;28.96;35.86;101711.81;5117531;28;20055;-50
2021/07/20 00:36:42;;;;;;;1.25;1.15;;;25.20;52.40;;;28.94;35.87;101711.09;5117608;28;20043;-55
2021/07/20 00:39:08;;;;;;;1.35;1.17;;;25.20;52.40;;;28.94;35.81;101711.09;5118205;28;20047;-54
2021/07/20 00:41:34;;;;;;;1.42;1.30;;;25.20;52.40;;;28.94;35.54;101708.41;5100926;28;20145;-51
2021/07/20 00:44:01;;;;;;;1.48;1.38;;;25.20;52.40;;;28.94;35.59;101709.25;5117286;28;20083;-54
2021/07/20 00:46:27;;;;;;;1.48;1.30;;;25.20;52.50;;;28.94;35.87;101705.72;5096287;28;20445;-55
2021/07/20 00:48:52;;;;;;;1.60;1.35;;;25.20;52.50;;;28.91;35.73;101709.50;5092959;28;20480;-54
2021/07/20 00:51:36;;;;;;;1.40;1.30;;;25.10;52.40;;;28.94;35.60;101716.47;5116083;28;20055;-52
2021/07/20 00:54:03;;;;;;;1.80;1.50;;;25.20;52.50;;;28.90;35.83;101710.50;5115461;28;20376;-54
2021/07/20 00:56:31;;;;;;;1.42;1.33;;;25.10;52.50;;;28.89;35.77;101705.25;5115391;28;20048;-54
2021/07/20 00:58:58;;;;;;;1.27;1.17;;;25.10;52.50;;;28.90;35.94;101710.50;5097584;28;20058;-53
2021/07/20 01:01:24;;;;;;;1.50;1.40;;;25.10;52.50;;;28.86;35.87;101700.94;5097040;28;20060;-50
2021/07/20 01:03:54;;;;;;;2.00;1.23;;;25.10;52.60;;;28.86;35.92;101705.50;5064683;28;20074;-53
2021/07/20 01:06:25;;;;;;;1.65;1.23;;;25.10;52.60;;;28.87;35.78;101710.75;5097839;28;20128;-53
2021/07/20 01:08:54;;;;;;;1.92;1.30;;;25.10;52.60;;;28.83;35.95;101704.78;5096777;28;20461;-54
2021/07/20 01:11:25;;;;;;;1.30;1.20;;;25.10;52.60;;;28.86;36.12;101710.88;5115176;28;20074;-53
2021/07/20 01:13:53;;;;;;;1.30;1.00;;;25.10;52.60;;;28.83;35.88;101699.38;5097425;28;20047;-54
2021/07/20 01:16:21;;;;;;;1.63;1.30;;;25.10;52.60;;;28.83;36.05;101707.47;5063664;28;20062;-49
2021/07/20 01:18:49;;;;;;;2.08;1.52;;;25.00;52.60;;;28.83;35.83;101710.16;5079830;28;20058;-53
2021/07/20 01:21:15;;;;;;;1.40;1.30;;;25.00;52.60;;;28.77;35.83;101693.66;5095300;28;20055;-51
2021/07/20 01:23:44;;;;;;;1.75;1.48;;;25.00;52.60;;;28.77;35.92;101699.88;5096569;28;20050;-51
2021/07/20 01:26:13;;;;;;;1.35;1.25;;;25.00;52.70;;;28.81;36.07;101700.47;5095401;28;20093;-52
2021/07/20 01:28:40;;;;;;;1.20;1.10;;;25.00;52.70;;;28.79;36.03;101697.91;5114815;28;20126;-50
2021/07/20 01:31:18;;;;;;;1.42;1.00;;;25.00;52.70;;;28.77;35.83;101690.97;5097058;28;20055;-54
2021/07/20 01:33:50;;;;;;;1.15;1.08;;;25.00;52.70;;;28.76;35.89;101694.63;5093021;28;20496;-51
2021/07/20 01:36:22;;;;;;;1.50;1.40;;;25.00;52.70;;;28.76;35.92;101700.84;5094509;28;20496;-53
2021/07/20 01:38:53;;;;;;;1.33;1.20;;;25.00;52.70;;;28.76;36.15;101708.09;5095515;28;20135;-54
2021/07/20 01:41:19;;;;;;;1.35;1.20;;;25.00;52.80;;;28.74;36.13;101702.81;5095228;28;20044;-52
2021/07/20 01:43:54;;;;;;;1.75;1.42;;;25.00;52.80;;;28.73;36.30;101709.19;5113403;28;20039;-51
2021/07/20 01:46:21;;;;;;;1.20;1.10;;;25.00;52.80;;;28.73;36.07;101708.34;5061601;28;20044;-53
2021/07/20 01:48:51;;;;;;;1.35;1.25;;;25.00;52.90;;;28.73;36.13;101702.94;5079183;28;20043;-51
2021/07/20 01:51:21;;;;;;;0.90;0.90;;;25.00;52.90;;;28.67;36.05;101695.38;5096861;28;20046;-54
2021/07/20 01:53:50;;;;;;;1.48;1.20;;;24.90;52.80;;;28.71;36.16;101704.91;5096757;28;20088;-54
2021/07/20 01:56:20;;;;;;;1.27;1.10;;;24.90;52.80;;;28.70;36.14;101712.16;5113046;28;20146;-55
2021/07/20 01:58:47;;;;;;;2.13;1.53;;;24.90;52.90;;;28.69;36.00;101706.88;5112954;28;20526;-51
2021/07/20 02:01:42;;;;;;;1.90;1.10;;;24.90;52.90;;;28.65;36.02;101706.25;5114340;28;20058;-55
2021/07/20 02:09:54;;;;;;;1.40;1.30;;;24.80;52.90;;;28.64;36.16;101702.72;5113088;28;20104;-53
2021/07/20 02:12:32;;;;;;;1.25;1.13;;;24.90;52.90;;;28.66;36.12;101699.06;5111073;28;20176;-54
2021/07/20 02:15:18;;;;;;;1.33;1.23;;;24.90;52.90;;;28.63;36.23;101702.84;5114534;28;20062;-52
2021/07/20 02:17:50;;;;;;;1.20;1.10;;;24.90;53.00;;;28.60;36.28;101690.50;5112839;28;20050;-54
2021/07/20 02:20:26;;;;;;;1.17;1.08;;;24.80;53.00;;;28.63;36.42;101694.78;5114155;28;20089;-55
2021/07/20 02:22:58;;;;;;;1.05;1.05;;;24.80;53.00;;;28.60;36.35;101693.19;5113919;28;20047;-54
2021/07/20 02:25:29;;;;;;;1.55;1.40;;;24.80;53.00;;;28.60;36.40;101697.72;5110871;28;20495;-51
2021/07/20 02:27:58;;;;;;;0.90;0.90;;;24.80;53.00;;;28.58;36.14;101703.22;5077676;28;20127;-53
2021/07/20 02:30:43;;;;;;;1.20;1.10;;;24.80;53.10;;;28.58;36.41;101703.22;5098209;28;20039;-55
2021/07/20 02:33:09;;;;;;;1.00;1.00;;;24.80;53.10;;;28.57;36.19;101697.97;5113632;28;20259;-53
2021/07/20 02:35:38;;;;;;;1.10;1.05;;;24.80;53.10;;;28.57;36.38;101695.28;5077946;28;20048;-52
2021/07/20 02:38:19;;;;;;;1.20;1.10;;;24.80;53.10;;;28.57;36.11;101698.81;5112727;28;20040;-49
2021/07/20 02:40:49;;;;;;;1.58;1.20;;;24.80;53.10;;;28.55;36.22;101698.06;5110868;28;20067;-54
2021/07/20 02:43:18;;;;;;;1.60;1.20;;;24.80;53.20;;;28.55;36.34;101692.69;5093701;28;20067;-51
2021/07/20 02:45:45;;;;;;;1.30;1.20;;;24.80;53.20;;;28.55;36.13;101694.50;5109562;28;20056;-50
2021/07/20 02:48:13;;;;;;;1.33;1.23;;;24.80;53.20;;;28.52;36.51;101694.75;5078382;28;20134;-50
2021/07/20 02:50:42;;;;;;;1.00;1.00;;;24.80;53.20;;;28.51;36.44;101699.28;5095050;28;20143;-49
2021/07/20 02:53:16;;;;;;;1.25;1.15;;;24.80;53.20;;;28.52;36.40;101697.44;5095710;28;20075;-51
2021/07/20 02:56:06;;;;;;;1.15;1.05;;;24.80;53.20;;;28.51;36.48;101691.22;5113798;28;20134;-49
2021/07/20 02:58:41;;;;;;;1.35;1.10;;;24.70;53.20;;;28.52;36.38;101701.00;5096282;28;20040;-50
2021/07/20 03:01:08;;;;;;;1.42;1.15;;;24.70;53.20;;;28.48;36.43;101696.84;5078270;28;20097;-50
2021/07/20 03:03:37;;;;;;;1.27;1.13;;;24.70;53.20;;;28.49;36.59;101701.25;5111975;28;20405;-49
2021/07/20 03:06:09;;;;;;;1.25;1.10;;;24.70;53.30;;;28.45;36.70;101694.41;5095230;28;20039;-52
2021/07/20 03:08:36;;;;;;;1.10;1.00;;;24.70;53.30;;;28.49;36.38;101706.63;5077645;28;20135;-52
2021/07/20 03:11:16;;;;;;;0.90;0.85;;;24.70;53.20;;;28.49;36.23;101709.31;5095612;28;20093;-52
2021/07/20 03:13:47;;;;;;;1.10;1.05;;;24.70;53.30;;;28.46;36.28;101696.97;5095003;28;20035;-51
2021/07/20 03:16:15;;;;;;;1.45;1.20;;;24.70;53.30;;;28.44;36.50;101693.56;5113283;28;20055;-47
2021/07/20 03:18:44;;;;;;;1.15;1.00;;;24.70;53.30;;;28.45;36.29;101703.34;5113337;28;20082;-52
2021/07/20 03:21:13;;;;;;;1.30;1.20;;;24.70;53.80;;;28.43;36.50;101705.31;5075644;28;20080;-51
2021/07/20 03:23:43;;;;;;;0.90;0.90;;;24.70;53.30;;;28.42;36.51;101700.06;5113301;28;20090;-46
2021/07/20 03:26:09;;;;;;;1.30;1.20;;;24.70;53.30;;;28.45;36.49;101714.09;5094977;28;20056;-47
2021/07/20 03:28:37;;;;;;;1.73;1.20;;;24.70;53.30;;;28.43;36.55;101712.50;5111549;28;20070;-48
2021/07/20 03:31:04;;;;;;;0.90;0.90;;;24.70;53.40;;;28.43;36.32;101718.75;5077243;28;20079;-46
2021/07/20 03:33:32;;;;;;;1.27;1.17;;;24.70;53.40;;;28.41;36.28;101714.47;5094403;28;20058;-47
2021/07/20 03:36:03;;;;;;;;;;;24.70;53.40;;;28.52;36.40;101717.16;5095685;28;20135;-47
2021/07/20 03:38:34;;;;;;;1.15;0.90;;;24.70;53.30;;;28.44;36.44;101715.06;5078113;28;20024;-48
2021/07/20 03:41:05;;;;;;;2.10;1.00;;;24.60;53.30;;;28.46;36.53;101720.31;5113273;28;20035;-47
2021/07/20 03:43:32;;;;;;;1.38;1.02;;;24.60;53.30;;;28.42;36.29;101716.19;5113124;28;20506;-47
2021/07/20 03:46:01;;;;;;;1.30;1.17;;;24.70;53.30;;;28.42;36.37;101711.66;5094487;28;20044;-49
2021/07/20 03:48:30;;;;;;;1.27;1.17;;;24.70;53.30;;;28.37;36.32;101713.03;5112786;28;20048;-51
2021/07/20 03:51:16;;;;;;;0.95;0.95;;;24.60;53.30;;;28.42;36.22;101716.19;5092687;28;20396;-53
2021/07/20 03:53:43;;;;;;;1.13;1.02;;;24.70;53.30;;;28.42;36.64;101721.56;5078119;28;20052;-48
2021/07/20 03:56:09;;;;;;;0.90;0.90;;;24.70;53.30;;;28.40;36.60;101715.44;5112646;28;20051;-50
2021/07/20 03:58:44;;;;;;;1.02;1.02;;;24.60;53.30;;;28.39;36.51;101717.28;5075614;28;20438;-53
2021/07/20 04:01:12;;;;;;;1.30;1.20;;;24.70;53.30;;;28.39;36.74;101729.88;5077562;28;20048;-54
2021/07/20 04:03:39;;;;;;;1.10;1.05;;;24.70;53.30;;;28.40;36.57;101729.75;5077941;28;20050;-53
2021/07/20 04:06:10;;;;;;;1.33;1.23;;;24.70;53.30;;;28.40;36.25;101732.44;5112944;28;20052;-51
2021/07/20 04:08:59;;;;;;;1.17;1.10;;;24.70;53.30;;;28.41;36.35;101734.16;5092312;28;20113;-52
2021/07/20 04:11:46;;;;;;;1.13;1.02;;;24.70;53.30;;;28.42;36.57;101743.94;5097357;28;20141;-50
2021/07/20 04:14:13;;;;;;;1.05;1.05;;;24.70;53.30;;;28.43;36.27;101736.72;5094126;28;20559;-49
2021/07/20 04:16:49;;;;;;;1.05;0.95;;;24.70;53.30;;;28.44;36.39;101733.91;5094234;28;20071;-53
2021/07/20 04:19:16;;;;;;;0.88;0.80;;;24.70;53.30;;;28.41;36.50;101730.59;5092781;28;20166;-50
2021/07/20 04:22:04;;;;;;;1.58;1.00;;;24.70;53.30;;;28.41;36.44;101736.84;5116005;28;20502;-47
2021/07/20 04:24:31;;;;;;;1.30;1.00;;;24.70;53.30;;;28.40;36.50;101734.25;5114828;28;20142;-51
2021/07/20 04:27:00;;;;;;;1.13;1.05;;;24.60;53.20;;;28.39;36.64;101729.88;5097351;28;20044;-53
2021/07/20 04:29:28;;;;;;;1.00;1.00;;;24.70;53.30;;;28.38;36.46;101733.53;5097747;28;20048;-50
2021/07/20 04:31:58;;;;;;;0.95;0.95;;;24.60;53.20;;;28.36;36.60;101725.59;5080673;28;20039;-48
2021/07/20 04:34:25;;;;;;;1.02;1.00;;;24.60;53.30;;;28.41;36.42;101739.53;5114781;28;20058;-50
2021/07/20 04:37:14;;;;;;;1.50;1.05;;;24.60;53.30;;;28.39;36.48;101736.09;5114176;28;20079;-48
2021/07/20 04:39:46;;;;;;;1.05;0.90;;;24.60;53.30;;;28.39;36.39;101744.19;5081410;28;20058;-48
2021/07/20 04:42:14;;;;;;;1.10;1.00;;;24.60;53.30;;;28.39;36.38;101746.03;5080855;28;20513;-49
2021/07/20 04:44:41;;;;;;;1.20;1.10;;;24.60;53.30;;;28.35;36.58;101737.34;5097303;28;20047;-49
2021/07/20 04:47:20;;;;;;;2.05;1.10;;;24.60;53.30;;;28.37;36.49;101747.97;5114129;28;20040;-51
2021/07/20 04:49:50;;;;;;;1.02;1.02;;;24.60;53.30;;;28.35;36.28;101742.72;5097278;28;20071;-51
2021/07/20 04:52:17;;;;;;;0.80;0.80;;;24.60;53.30;;;28.38;36.42;101749.69;5080419;28;20047;-51
2021/07/20 04:54:46;;;;;;;1.30;1.20;;;24.60;53.20;;;28.35;36.57;101750.78;5097669;28;20056;-53
2021/07/20 04:57:12;;;;;;;1.10;1.02;;;24.60;53.30;;;28.37;36.26;101756.06;5080404;28;20448;-51
2021/07/20 04:59:39;;;;;;;0.90;0.90;;;24.60;53.20;;;28.39;36.15;101764.84;5113968;28;20070;-49
2021/07/20 05:02:13;;;;;;;2.10;1.00;;;24.60;53.30;;;28.34;36.33;101757.13;5080764;28;20078;-54
2021/07/20 05:04:42;;;;;;;1.77;1.23;;;24.60;53.20;;;28.38;36.60;101763.13;5114019;28;20085;-49
2021/07/20 05:07:15;;;;;;;1.60;1.10;;;24.60;53.30;;;28.37;36.16;101761.44;5096769;28;20040;-52
2021/07/20 05:09:48;;;;;;;1.33;1.23;;;24.60;53.20;;;28.38;36.22;101755.91;5097772;28;20067;-51
2021/07/20 05:12:16;;;;;;;1.75;1.10;;;24.60;53.20;;;28.37;36.15;101758.75;5096988;28;20058;-51
2021/07/20 05:14:52;;;;;;;1.33;1.20;;;24.60;53.20;;;28.39;36.54;101760.31;5082013;28;20387;-47
2021/07/20 05:17:20;;;;;;;1.17;1.08;;;24.60;53.20;;;28.35;36.16;101756.16;5113612;28;20071;-49
2021/07/20 05:19:47;;;;;;;1.25;1.10;;;24.60;53.20;;;28.35;36.10;101756.16;5063109;28;20436;-49
2021/07/20 05:22:35;;;;;;;1.00;1.00;;;24.60;53.20;;;28.38;36.51;101763.97;5082385;28;20109;-50
2021/07/20 05:25:08;;;;;;;1.17;0.90;;;24.60;53.20;;;28.38;36.48;101760.44;5113991;28;20104;-48
2021/07/20 05:27:42;;;;;;;0.90;0.90;;;24.60;53.10;;;28.38;36.20;101758.59;5115024;28;20050;-51
2021/07/20 05:30:09;;;;;;;1.23;1.13;;;24.60;53.10;;;28.41;36.27;101761.03;5096594;28;20154;-51
2021/07/20 05:32:43;;;;;;;1.10;1.00;;;24.70;53.20;;;28.38;36.17;101761.28;5079315;28;20400;-48
2021/07/20 05:35:17;;;;;;;1.05;1.00;;;24.70;53.10;;;28.43;36.03;101760.91;5112723;28;20051;-48
2021/07/20 05:37:46;;;;;;;1.10;1.00;;;24.60;53.00;;;28.43;36.41;101758.22;5095517;28;20136;-48
2021/07/20 05:40:20;;;;;;;1.00;0.95;;;24.70;53.10;;;28.44;36.20;101762.66;5114717;28;20048;-47
2021/07/20 05:42:48;;;;;;;1.25;1.15;;;24.70;53.00;;;28.46;36.12;101760.69;5113892;28;20056;-51
2021/07/20 05:45:28;;;;;;;0.90;0.90;;;24.70;53.00;;;28.49;36.20;101767.66;5080226;28;20047;-52
2021/07/20 05:47:57;;;;;;;1.00;1.00;;;24.70;52.90;;;28.47;36.06;101759.72;5093295;28;20048;-47
2021/07/20 05:50:23;;;;;;;0.82;0.82;;;24.70;52.90;;;28.50;36.20;101756.78;5096230;28;20050;-49
2021/07/20 05:53:29;;;;;;;1.42;1.08;;;24.70;52.80;;;28.57;36.31;101762.56;5096361;28;20031;-48
2021/07/20 05:56:05;;;;;;;1.10;0.95;;;24.80;52.80;;;28.58;35.88;101758.88;5081071;28;20538;-53
2021/07/20 05:58:36;;;;;;;0.70;0.70;;;24.80;52.70;;;28.63;35.73;101762.03;5095947;28;20048;-52
2021/07/20 06:01:04;;;;;;;0.90;0.90;;;24.80;52.60;;;-147.20;100.00;58430.41;5079455;28;20483;-48
2021/07/20 06:03:32;;;;;;;0.80;0.80;;;24.90;52.60;;;-147.20;100.00;58430.41;5112556;28;20255;-50
2021/07/20 06:06:00;;;;;;;1.98;0.90;;;25.00;52.50;;;-147.20;100.00;58430.41;5114115;28;20051;-50
2021/07/20 06:08:28;;;;;;;1.10;1.00;;;25.10;52.30;;;-147.20;100.00;58430.41;5112218;28;20467;-48
2021/07/20 06:10:59;;;;;;;0.90;0.90;;;25.20;52.00;;;-147.20;100.00;58430.41;5095956;28;20493;-47
2021/07/20 06:13:30;;;;;;;;;;;25.30;51.80;;;-147.20;100.00;58430.41;5096467;28;20068;-46
2021/07/20 06:15:58;;;;;;;1.15;0.95;;;25.40;51.70;;;-147.20;100.00;58430.41;5096005;28;19923;-50
2021/07/20 06:18:25;;;;;;;0.90;0.90;;;25.50;51.50;;;-147.20;100.00;58430.41;5079112;28;20075;-50
2021/07/20 06:21:04;;;;;;;1.17;0.80;;;25.60;51.40;;;-147.20;100.00;58430.41;5113960;28;20052;-48
2021/07/20 06:23:37;;;;;;;0.80;0.80;;;25.60;51.30;;;-147.20;100.00;58430.41;5114218;28;20092;-48
2021/07/20 06:26:03;;;;;;;0.98;0.93;;;25.70;51.10;;;-147.20;100.00;58430.41;5095824;28;20051;-49
2021/07/20 06:28:30;;;;;;;0.98;0.82;;;25.70;51.00;;;-147.20;100.00;58430.41;5095443;28;20158;-51
2021/07/20 06:30:58;;;;;;;0.90;0.90;;;25.80;50.90;;;-147.20;100.00;58430.41;5095531;28;20040;-48
2021/07/20 06:33:25;;;;;;;1.10;1.00;;;25.80;50.80;;;-147.20;100.00;58430.41;5113738;28;20411;-49
2021/07/20 06:35:51;;;;;;;1.70;1.00;;;25.90;50.70;;;-147.20;100.00;58430.41;5113700;28;20051;-48
2021/07/20 06:38:19;;;;;;;0.70;0.70;;;26.00;50.60;;;-147.20;100.00;58430.41;5113565;28;20055;-49
2021/07/20 06:40:49;;;;;;;1.00;1.00;;;26.00;50.50;;;-147.20;100.00;58430.41;5093353;28;20404;-48
2021/07/20 06:43:16;;;;;;;1.03;0.80;;;26.10;50.40;;;-147.20;100.00;58430.41;5093935;28;20043;-45
2021/07/20 06:45:46;;;;;;;0.90;0.90;;;26.10;50.20;;;-147.20;100.00;58430.41;5113321;28;21157;-52
2021/07/20 06:48:20;;;;;;;0.80;0.80;;;26.20;50.20;;;-147.20;100.00;58430.41;5094716;28;20539;-51
2021/07/20 06:50:48;;;;;;;1.13;1.00;;;26.30;50.10;;;-147.20;100.00;58430.41;5094868;28;20478;-46
2021/07/20 06:53:14;;;;;;;0.88;0.75;;;26.30;50.00;;;-147.20;100.00;58430.41;5113206;28;20056;-46
2021/07/20 06:55:51;;;;;;;0.70;0.70;;;26.40;49.90;;;-147.20;100.00;58430.41;5093985;28;20480;-50
2021/07/20 06:58:23;;;;;;;1.23;0.80;;;26.40;49.70;;;-147.20;100.00;58430.41;5093950;28;20514;-47
2021/07/20 07:01:01;;;;;;;1.00;0.90;;;26.50;49.70;;;-147.20;100.00;58430.41;5112572;28;20047;-47
2021/07/20 07:03:41;;;;;;;1.10;1.00;;;26.50;49.60;;;-147.20;100.00;58430.41;5095376;28;20039;-48
2021/07/20 07:06:09;;;;;;;0.88;0.85;;;26.50;49.40;;;-147.20;100.00;58430.41;5094829;28;20044;-48
2021/07/20 07:08:36;;;;;;;0.80;0.80;;;26.70;49.50;;;-147.20;100.00;58430.41;5094740;28;20066;-47
2021/07/20 07:11:03;;;;;;;1.10;0.90;;;26.70;49.30;;;-147.20;100.00;58430.41;5094996;28;20078;-48
2021/07/20 07:13:33;;;;;;;0.95;0.85;;;26.70;49.30;;;-147.20;100.00;58430.41;5095008;28;20047;-50
2021/07/20 07:16:00;;;;;;;1.10;0.80;;;26.70;49.20;;;-147.20;100.00;58430.41;5094973;28;20483;-47
2021/07/20 07:18:28;;;;;;;0.88;0.70;;;26.80;49.20;;;-147.20;100.00;58430.41;5089439;28;20097;-51
2021/07/20 07:20:56;;;;;;;0.90;0.90;;;26.90;49.00;;;-147.20;100.00;58430.41;5113147;28;20047;-46
2021/07/20 07:23:24;;;;;;;1.02;0.77;;;26.90;48.90;;;-147.20;100.00;58430.41;5112687;28;20036;-49
2021/07/20 07:25:54;;;;;;;1.08;1.00;;;27.00;48.80;;;31.04;32.39;101772.09;5093872;28;20044;-47
2021/07/20 07:28:21;;;;;;;0.77;0.77;;;27.00;48.70;;;31.07;32.38;101776.34;5113114;28;20719;-52
2021/07/20 07:30:48;;;;;;;0.70;0.70;;;27.00;48.60;;;31.08;32.31;101775.38;5093357;28;20081;-54
2021/07/20 07:33:14;;;;;;;0.80;0.80;;;27.00;48.60;;;31.12;32.10;101779.47;5091120;28;20063;-50
2021/07/20 07:35:40;;;;;;;1.10;1.00;;;27.00;48.60;;;31.09;32.34;101780.63;5113226;28;20055;-54
2021/07/20 07:38:07;;;;;;;1.05;1.00;;;27.00;48.60;;;31.08;32.35;101789.72;5112729;28;20100;-53
2021/07/20 07:40:33;;;;;;;0.82;0.80;;;26.90;48.60;;;31.06;32.30;101788.13;5092873;28;20048;-50
2021/07/20 07:43:03;;;;;;;0.88;0.80;;;27.00;48.70;;;31.01;32.39;101777.78;5094787;28;20047;-49
2021/07/20 07:45:29;;;;;;;0.73;0.73;;;26.90;48.60;;;31.03;32.32;101787.44;5112758;28;20135;-51
2021/07/20 07:47:56;;;;;;;0.90;0.80;;;26.90;48.70;;;30.99;32.34;101779.75;5094728;28;20470;-54
2021/07/20 07:50:22;;;;;;;1.75;0.93;;;26.90;48.60;;;31.01;32.33;101778.63;5094449;28;20395;-52
2021/07/20 07:52:48;;;;;;;1.20;0.90;;;26.90;48.70;;;31.02;32.39;101779.47;5112701;28;20050;-52
2021/07/20 07:55:16;;;;;;;0.90;0.90;;;26.90;48.60;;;31.03;32.14;101775.78;5096789;28;20051;-49
2021/07/20 07:57:43;;;;;;;1.05;1.00;;;27.00;48.60;;;31.02;32.20;101779.47;5116161;28;20077;-49
2021/07/20 08:00:09;;;;;;;1.17;0.85;;;27.00;48.60;;;31.09;32.26;101777.06;5116304;28;20122;-49
2021/07/20 08:02:39;;;;;;;1.10;1.00;;;27.00;48.50;;;31.14;32.18;101778.38;5116271;28;20064;-50
2021/07/20 08:05:06;;;;;;;0.80;0.80;;;27.10;48.50;;;31.16;32.05;101779.06;5096223;28;20040;-53
2021/07/20 08:07:33;;;;;;;0.70;0.70;;;27.10;48.40;;;31.17;31.96;101775.38;5097626;28;20134;-48
2021/07/20 08:10:00;;;;;;;0.88;0.80;;;27.10;48.40;;;31.17;32.24;101775.38;5116022;28;20461;-50
2021/07/20 08:12:28;;;;;;;0.90;0.90;;;27.20;48.40;;;31.20;32.12;101769.66;5115243;28;20067;-51
2021/07/20 08:14:54;;;;;;;0.80;0.80;;;27.20;48.30;;;31.26;31.89;101780.91;5116114;28;20047;-49
2021/07/20 08:17:23;;;;;;;1.13;1.00;;;27.20;48.30;;;31.25;32.03;101776.53;5096038;28;20068;-50
2021/07/20 08:19:50;;;;;;;1.00;0.90;;;27.20;48.20;;;31.34;31.91;101792.75;5097700;28;20059;-48
2021/07/20 08:22:18;;;;;;;1.00;0.82;;;27.30;48.10;;;31.33;31.90;101777.50;5097928;28;20051;-47
2021/07/20 08:25:04;;;;;;;0.80;0.80;;;27.30;48.00;;;31.33;32.11;101784.78;5097581;28;20399;-47
2021/07/20 08:27:47;;;;;;;1.08;1.00;;;27.30;48.00;;;31.28;31.89;101784.34;5079233;28;20123;-51
2021/07/20 08:30:15;;;;;;;0.90;0.90;;;27.30;48.10;;;31.29;31.87;101788.72;5115647;28;20062;-52
2021/07/20 08:32:51;;;;;;;0.82;0.82;;;27.20;48.10;;;31.27;32.16;101777.22;5097448;28;20127;-52
2021/07/20 08:35:24;;;;;;;0.95;0.90;;;27.20;48.10;;;31.31;31.90;101775.97;5080805;28;20503;-54
2021/07/20 08:37:54;;;;;;;0.70;0.70;;;27.30;48.10;;;31.35;31.98;101771.97;5097224;28;20044;-47
2021/07/20 08:40:38;;;;;;;0.80;0.80;;;27.30;47.90;;;31.34;31.79;101784.63;5097378;28;20126;-50
2021/07/20 08:43:45;;;;;;;1.05;0.90;;;27.30;47.80;;;31.32;31.89;101788.47;5115654;28;20096;-47
2021/07/20 08:46:32;;;;;;;0.90;0.80;;;27.30;47.90;;;31.21;31.86;101784.91;5097247;28;20047;-50
2021/07/20 08:49:46;;;;;;;1.15;0.90;;;27.20;48.00;;;31.23;32.04;101792.88;5116143;28;20139;-52
2021/07/20 08:52:21;;;;;;;0.85;0.85;;;27.20;48.00;;;31.20;32.06;101783.19;5012821;28;20535;-53
2021/07/20 08:54:57;;;;;;;0.98;0.80;;;27.30;48.10;;;31.25;32.01;101790.03;5086414;28;20055;-53
2021/07/20 08:57:32;;;;;;;0.90;0.90;;;27.30;48.00;;;31.29;31.90;101789.63;5115501;28;20051;-51
2021/07/20 09:00:21;;;;;;;0.80;0.80;;;27.30;47.90;;;31.30;31.98;101790.47;5097461;28;20180;-52
2021/07/20 09:03:24;;;;;;;1.00;0.90;;;27.30;47.80;;;31.32;31.94;101791.16;5115448;28;20051;-51
2021/07/20 09:06:03;;;;;;;1.00;0.90;;;27.30;47.80;;;31.31;31.90;101787.63;5095938;28;20583;-49
2021/07/20 09:08:35;;;;;;;0.85;0.85;;;27.30;47.70;;;31.33;31.74;101792.88;5115841;28;20058;-50
2021/07/20 09:11:21;;;;;;;0.90;0.90;;;27.40;47.80;;;31.32;31.74;101797.41;5115578;28;20398;-48
2021/07/20 09:14:00;;;;;;;1.00;0.90;;;27.40;47.80;;;31.30;31.96;101795.84;5112206;28;20123;-48
2021/07/20 09:16:50;;;;;;;1.33;1.10;;;27.30;47.70;;;31.29;31.71;101795.00;5097146;28;20055;-51
2021/07/20 09:19:33;;;;;;;1.10;1.10;;;27.30;47.70;;;31.29;31.89;101797.72;5114952;28;20052;-50
2021/07/20 09:22:15;;;;;;;2.35;0.90;;;27.40;47.80;;;31.33;31.77;101798.28;5114978;28;20487;-52
2021/07/20 09:25:04;;;;;;;0.93;0.85;;;27.40;47.80;;;31.34;31.77;101787.34;5113724;28;20055;-49
2021/07/20 09:27:46;;;;;;;0.90;0.90;;;27.40;48.30;;;31.34;31.79;101794.56;5114868;28;20093;-49
2021/07/20 09:30:26;;;;;;;0.80;0.80;;;27.40;47.60;;;31.39;31.63;101797.69;5115079;28;20047;-49
2021/07/20 09:33:22;;;;;;;1.00;0.90;;;27.50;47.60;;;31.39;31.81;101793.16;5096613;28;20058;-48
2021/07/20 09:36:13;;;;;;;1.00;0.90;;;27.40;47.50;;;31.43;31.75;101799.13;5093239;28;20059;-51
2021/07/20 09:38:56;;;;;;;1.10;0.90;;;27.50;47.40;;;31.47;31.70;101805.09;5113304;28;20043;-49
2021/07/20 09:41:40;;;;;;;1.05;0.75;;;27.50;47.40;;;31.51;31.49;101811.97;5115075;28;20071;-51
2021/07/20 09:44:20;;;;;;;1.48;1.35;;;27.50;47.30;;;31.49;31.51;101800.41;5114711;28;20051;-50
2021/07/20 09:47:10;;;;;;;1.50;0.98;;;27.60;47.30;;;31.53;31.68;101804.56;5096569;28;20043;-51
2021/07/20 09:49:56;;;;;;;0.95;0.95;;;27.60;47.30;;;31.52;31.55;101811.81;5097036;28;20459;-49
2021/07/20 09:52:41;;;;;;;1.27;0.95;;;27.60;47.30;;;31.53;31.42;101804.56;5114471;28;20474;-48
2021/07/20 09:55:43;;;;;;;0.90;0.90;;;27.60;47.30;;;31.55;31.64;101802.56;5096382;28;20483;-50
2021/07/20 09:58:52;;;;;;;1.58;1.00;;;27.60;47.30;;;31.57;31.59;101800.56;5094865;28;20059;-49
2021/07/20 10:01:31;;;;;;;0.93;0.90;;;27.60;47.20;;;31.54;31.53;101799.03;5065908;28;20126;-48
2021/07/20 10:04:18;;;;;;;0.93;0.90;;;27.60;47.20;;;31.57;31.37;101806.84;5096046;28;20100;-52
2021/07/20 10:06:50;;;;;;;1.02;0.95;;;27.70;47.20;;;31.55;31.45;101787.19;5113882;28;20067;-48
2021/07/20 10:09:27;;;;;;;0.98;0.82;;;27.60;47.10;;;31.55;31.44;101789.91;5095831;28;20475;-51
2021/07/20 10:12:24;;;;;;;0.80;0.80;;;27.60;47.10;;;31.55;31.36;101789.91;5096249;28;20039;-49
2021/07/20 10:15:06;;;;;;;1.00;0.90;;;27.60;47.20;;;31.52;31.50;101786.63;5095618;28;20054;-52
2021/07/20 10:17:56;;;;;;;0.80;0.80;;;27.60;47.20;;;31.54;31.59;101790.03;5094522;28;20056;-49
2021/07/20 10:20:30;;;;;;;1.05;0.82;;;27.70;47.30;;;31.56;31.37;101783.50;5096191;28;20073;-47
2021/07/20 10:23:03;;;;;;;1.38;1.20;;;27.60;47.10;;;31.55;31.38;101778.25;5095745;28;20104;-48
2021/07/20 10:25:50;;;;;;;1.10;1.00;;;27.70;47.10;;;31.57;31.36;101778.94;5093746;28;20105;-49
2021/07/20 10:28:23;;;;;;;1.40;0.85;;;27.70;47.10;;;31.60;31.44;101775.13;5093844;28;20082;-47
2021/07/20 10:31:11;;;;;;;0.85;0.85;;;27.70;47.10;;;31.57;31.17;101782.53;5094157;28;20055;-46
2021/07/20 10:33:43;;;;;;;5.30;1.17;;;27.70;47.10;;;31.56;31.61;101774.56;5095966;28;20448;-52
2021/07/20 10:36:17;;;;;;;1.10;1.00;;;27.60;47.00;;;31.53;31.33;101775.69;5095619;28;20048;-48
2021/07/20 10:38:50;;;;;;;1.45;1.00;;;27.60;47.00;;;31.54;31.40;101777.41;5113984;28;20071;-48
2021/07/20 10:41:24;;;;;;;1.00;0.90;;;27.60;47.10;;;31.53;31.53;101775.69;5114336;28;20097;-49